createdAt,value
2022-08-31T00:02:51.940Z,15.85
2022-08-31T00:06:36.249Z,15.48
2022-08-31T00:10:31.608Z,17.67
2022-08-31T00:14:15.343Z,11.65
2022-08-31T00:18:01.317Z,14.10
2022-08-31T00:21:44.715Z,9.70
2022-08-31T00:25:27.415Z,8.40
2022-08-31T00:29:10.616Z,12.60
2022-08-31T00:36:37.129Z,11.77
2022-08-31T00:40:20.163Z,10.55
2022-08-31T00:47:47.112Z,11.88
2022-08-31T00:51:31.272Z,11.33
2022-08-31T00:55:19.138Z,6.32
2022-08-31T00:59:01.769Z,11.05
2022-08-31T01:02:44.682Z,15.73
2022-08-31T01:10:11.526Z,9.57
2022-08-31T01:13:55.864Z,10.90
2022-08-31T01:17:39.468Z,8.82
2022-08-31T01:21:29.589Z,14.63
2022-08-31T01:25:15.317Z,13.60
2022-08-31T01:29:01.639Z,13.05
2022-08-31T01:32:44.585Z,10.23
2022-08-31T01:36:29.383Z,10.55
2022-08-31T01:40:14.127Z,13.65
2022-08-31T01:43:57.143Z,11.05
2022-08-31T01:47:39.742Z,10.95
2022-08-31T01:51:23.333Z,9.82
2022-08-31T01:55:07.217Z,8.93
2022-08-31T01:58:51.689Z,12.27
2022-08-31T02:02:34.413Z,7.40
2022-08-31T02:06:16.938Z,6.95
2022-08-31T02:09:59.842Z,11.93
2022-08-31T02:13:43.611Z,7.65
2022-08-31T02:17:27.661Z,10.70
2022-08-31T02:21:10.255Z,8.25
2022-08-31T02:24:52.892Z,8.80
2022-08-31T02:28:35.774Z,11.32
2022-08-31T02:32:20.260Z,5.43
2022-08-31T02:36:05.766Z,7.65
2022-08-31T02:39:48.768Z,9.10
2022-08-31T02:43:33.709Z,13.05
2022-08-31T02:47:16.223Z,11.43
2022-08-31T02:51:06.554Z,7.30
2022-08-31T02:54:49.225Z,8.60
2022-08-31T02:58:31.916Z,6.43
2022-08-31T03:02:14.872Z,9.85
2022-08-31T03:09:41.726Z,11.50
2022-08-31T03:13:26.374Z,16.08
2022-08-31T03:17:09.218Z,7.95
2022-08-31T03:20:52.236Z,7.70
2022-08-31T03:24:34.795Z,9.02
2022-08-31T03:28:18.733Z,9.70
2022-08-31T03:32:02.628Z,9.70
2022-08-31T03:35:46.126Z,11.27
2022-08-31T03:39:28.733Z,7.68
2022-08-31T03:43:12.229Z,8.23
2022-08-31T03:46:56.745Z,10.18
2022-08-31T03:50:40.329Z,7.43
2022-08-31T03:54:23.395Z,7.68
2022-08-31T03:58:09.593Z,12.43
2022-08-31T04:01:52.169Z,12.07
2022-08-31T04:05:38.320Z,10.00
2022-08-31T04:09:21.169Z,7.80
2022-08-31T04:13:03.791Z,8.90
2022-08-31T04:16:47.644Z,10.02
2022-08-31T04:20:30.391Z,9.35
2022-08-31T04:24:15.075Z,9.32
2022-08-31T04:27:58.228Z,9.18
2022-08-31T04:31:41.088Z,7.63
2022-08-31T04:35:23.688Z,9.70
2022-08-31T04:39:07.719Z,8.55
2022-08-31T04:42:51.860Z,7.30
2022-08-31T04:46:37.518Z,12.88
2022-08-31T04:50:20.602Z,8.57
2022-08-31T04:54:04.666Z,13.77
2022-08-31T04:57:47.166Z,7.95
2022-08-31T05:01:42.831Z,12.88
2022-08-31T05:05:26.101Z,9.40
2022-08-31T05:09:11.655Z,8.63
2022-08-31T05:12:54.408Z,8.63
2022-08-31T05:16:40.895Z,11.52
2022-08-31T05:20:23.708Z,10.02
2022-08-31T05:24:09.238Z,11.82
2022-08-31T05:27:53.412Z,9.75
2022-08-31T05:31:39.379Z,12.60
2022-08-31T05:35:21.764Z,9.68
2022-08-31T05:39:06.293Z,9.38
2022-08-31T05:42:48.940Z,9.70
2022-08-31T05:46:31.551Z,10.20
2022-08-31T05:50:15.747Z,11.65
2022-08-31T05:53:59.932Z,13.07
2022-08-31T05:57:43.008Z,17.23
2022-08-31T06:01:30.455Z,12.73
2022-08-31T06:05:13.549Z,10.57
2022-08-31T06:08:58.697Z,10.70
2022-08-31T06:12:42.357Z,11.35
2022-08-31T06:16:26.299Z,11.18
2022-08-31T06:20:15.401Z,10.57
2022-08-31T06:24:03.260Z,15.05
2022-08-31T06:27:50.507Z,14.88
2022-08-31T06:31:37.033Z,21.80
2022-08-31T06:35:19.456Z,32.65
2022-08-31T06:39:05.212Z,24.30
2022-08-31T06:42:47.753Z,17.70
2022-08-31T06:46:33.214Z,20.88
2022-08-31T06:50:15.997Z,19.98
2022-08-31T06:54:11.363Z,22.55
2022-08-31T06:58:02.403Z,17.35
2022-08-31T07:01:45.286Z,22.17
2022-08-31T07:05:28.017Z,19.80
2022-08-31T07:09:12.952Z,19.50
2022-08-31T07:12:55.773Z,22.60
2022-08-31T07:16:40.764Z,21.27
2022-08-31T07:20:23.802Z,32.85
2022-08-31T07:27:50.415Z,24.77
2022-08-31T07:31:44.694Z,33.42
2022-08-31T07:35:30.000Z,17.52
2022-08-31T07:39:30.433Z,18.38
2022-08-31T07:43:12.980Z,19.17
2022-08-31T07:46:55.961Z,26.40
2022-08-31T07:50:46.628Z,18.67
2022-08-31T07:54:29.440Z,19.63
2022-08-31T07:58:13.388Z,21.40
2022-08-31T08:01:56.589Z,22.75
2022-08-31T08:05:41.890Z,21.52
2022-08-31T08:09:25.512Z,18.83
2022-08-31T08:13:09.081Z,17.27
2022-08-31T08:16:52.451Z,17.20
2022-08-31T08:20:38.444Z,15.25
2022-08-31T08:24:22.956Z,14.05
2022-08-31T08:28:22.738Z,15.07
2022-08-31T08:32:12.273Z,16.33
2022-08-31T08:36:00.461Z,15.13
2022-08-31T08:39:44.692Z,13.85
2022-08-31T08:43:31.314Z,16.73
2022-08-31T08:47:19.042Z,12.70
2022-08-31T08:51:07.013Z,13.50
2022-08-31T08:54:53.352Z,14.52
2022-08-31T08:58:36.199Z,15.70
2022-08-31T09:02:22.495Z,10.60
2022-08-31T09:06:09.909Z,13.77
2022-08-31T09:10:02.243Z,10.10
2022-08-31T09:13:55.458Z,13.63
2022-08-31T09:17:47.926Z,13.57
2022-08-31T09:21:34.458Z,13.90
2022-08-31T09:25:20.963Z,12.40
2022-08-31T09:29:04.574Z,17.38
2022-08-31T09:32:56.969Z,16.50
2022-08-31T09:36:41.867Z,17.45
2022-08-31T09:40:37.961Z,15.05
2022-08-31T09:44:34.338Z,18.60
2022-08-31T09:48:44.354Z,18.60
2022-08-31T09:52:48.245Z,20.80
2022-08-31T09:56:30.823Z,20.33
2022-08-31T10:00:16.660Z,15.93
2022-08-31T10:04:27.317Z,15.80
2022-08-31T10:08:31.856Z,19.55
2022-08-31T10:12:22.769Z,14.38
2022-08-31T10:16:14.563Z,19.48
2022-08-31T10:20:06.370Z,14.55
2022-08-31T10:23:57.517Z,22.85
2022-08-31T10:27:44.464Z,15.80
2022-08-31T10:31:34.251Z,14.55
2022-08-31T10:35:22.241Z,16.38
2022-08-31T10:39:11.826Z,18.85
2022-08-31T10:43:05.149Z,14.10
2022-08-31T10:46:50.310Z,15.52
2022-08-31T10:50:45.124Z,14.60
2022-08-31T10:54:40.260Z,13.25
2022-08-31T10:58:33.864Z,16.20
2022-08-31T11:02:41.728Z,15.77
2022-08-31T11:06:34.630Z,13.32
2022-08-31T11:10:27.817Z,14.13
2022-08-31T11:14:48.478Z,12.82
2022-08-31T11:19:11.973Z,13.65
2022-08-31T11:23:29.872Z,16.17
2022-08-31T11:27:23.440Z,20.10
2022-08-31T11:31:14.702Z,12.65
2022-08-31T11:35:01.121Z,20.83
2022-08-31T11:38:52.115Z,16.35
2022-08-31T11:43:01.374Z,14.55
2022-08-31T11:47:06.775Z,13.88
2022-08-31T11:51:07.317Z,17.25
2022-08-31T11:55:14.719Z,14.07
2022-08-31T11:59:20.636Z,15.63
2022-08-31T12:03:09.507Z,17.23
2022-08-31T12:07:11.063Z,14.90
2022-08-31T12:11:03.300Z,19.42
2022-08-31T12:14:51.934Z,18.38
2022-08-31T12:18:50.809Z,14.40
2022-08-31T12:23:29.833Z,13.73
2022-08-31T12:27:31.686Z,15.02
2022-08-31T12:31:18.824Z,20.33
2022-08-31T12:35:12.801Z,19.60
2022-08-31T12:39:08.441Z,19.70
2022-08-31T12:43:01.194Z,20.08
2022-08-31T12:46:59.650Z,18.13
2022-08-31T12:50:47.834Z,23.30
2022-08-31T12:55:05.646Z,16.52
2022-08-31T12:59:05.732Z,18.65
2022-08-31T13:02:50.901Z,13.65
2022-08-31T13:06:36.978Z,15.15
2022-08-31T13:10:29.357Z,16.88
2022-08-31T13:14:18.203Z,12.63
2022-08-31T13:18:02.388Z,18.38
2022-08-31T13:21:50.782Z,13.25
2022-08-31T13:25:36.863Z,16.15
2022-08-31T13:29:25.044Z,18.77
2022-08-31T13:33:23.236Z,15.32
2022-08-31T13:37:14.272Z,14.35
2022-08-31T13:40:56.895Z,16.25
2022-08-31T13:48:31.772Z,17.25
2022-08-31T13:52:18.681Z,15.55
2022-08-31T13:56:01.528Z,13.13
2022-08-31T13:59:45.662Z,17.00
2022-08-31T14:03:41.020Z,13.23
2022-08-31T14:07:25.574Z,14.60
2022-08-31T14:11:14.090Z,12.00
2022-08-31T14:14:59.464Z,11.45
2022-08-31T14:18:45.109Z,20.83
2022-08-31T14:22:30.524Z,14.27
2022-08-31T14:26:15.859Z,12.63
2022-08-31T14:30:02.297Z,21.65
2022-08-31T14:33:48.006Z,12.50
2022-08-31T14:37:31.722Z,18.50
2022-08-31T14:41:18.669Z,12.90
2022-08-31T14:45:05.113Z,17.60
2022-08-31T14:48:47.875Z,13.23
2022-08-31T14:52:30.489Z,13.82
2022-08-31T14:56:25.091Z,14.02
2022-08-31T15:00:12.969Z,16.45
2022-08-31T15:03:55.623Z,13.40
2022-08-31T15:07:40.326Z,13.15
2022-08-31T15:11:22.929Z,18.83
2022-08-31T15:15:07.607Z,14.70
2022-08-31T15:18:54.271Z,13.90
2022-08-31T15:22:40.527Z,16.23
2022-08-31T15:26:23.741Z,18.58
2022-08-31T15:34:09.986Z,14.85
2022-08-31T15:37:58.634Z,16.40
2022-08-31T15:41:42.293Z,21.55
2022-08-31T15:45:29.931Z,13.02
2022-08-31T15:49:19.287Z,14.70
2022-08-31T15:53:09.947Z,21.38
2022-08-31T15:56:55.818Z,17.35
2022-08-31T16:00:41.804Z,17.00
2022-08-31T16:04:25.936Z,18.98
2022-08-31T16:08:10.779Z,16.98
2022-08-31T16:11:56.152Z,17.13
2022-08-31T16:15:39.552Z,20.05
2022-08-31T16:19:35.086Z,19.17
2022-08-31T16:23:21.001Z,14.00
2022-08-31T16:27:06.322Z,15.15
2022-08-31T16:30:57.266Z,20.10
2022-08-31T16:34:42.591Z,15.30
2022-08-31T16:38:26.835Z,16.60
2022-08-31T16:42:11.239Z,17.98
2022-08-31T16:45:54.088Z,13.68
2022-08-31T16:49:40.358Z,16.50
2022-08-31T16:53:26.401Z,13.77
2022-08-31T16:57:23.920Z,17.73
2022-08-31T17:01:16.095Z,13.77
2022-08-31T17:05:05.229Z,17.23
2022-08-31T17:08:49.009Z,15.07
2022-08-31T17:12:33.804Z,17.38
2022-08-31T17:16:23.916Z,14.15
2022-08-31T17:20:08.494Z,20.17
2022-08-31T17:23:57.496Z,17.15
2022-08-31T17:27:47.790Z,14.55
2022-08-31T17:31:46.070Z,16.70
2022-08-31T17:35:31.976Z,19.55
2022-08-31T17:39:16.772Z,18.15
2022-08-31T17:43:02.168Z,24.48
2022-08-31T17:50:28.000Z,23.40
2022-08-31T17:54:13.501Z,19.23
2022-08-31T17:57:57.144Z,21.95
2022-08-31T18:01:41.778Z,18.48
2022-08-31T18:05:24.350Z,22.02
2022-08-31T18:09:07.209Z,31.90
2022-08-31T18:12:49.934Z,17.65
2022-08-31T18:16:33.242Z,19.40
2022-08-31T18:20:17.749Z,17.80
2022-08-31T18:24:00.597Z,21.40
2022-08-31T18:27:43.490Z,21.25
2022-08-31T18:31:30.421Z,23.15
2022-08-31T18:35:14.189Z,19.70
2022-08-31T18:39:00.398Z,22.85
2022-08-31T18:43:00.409Z,21.38
2022-08-31T18:46:43.449Z,19.48
2022-08-31T18:54:19.544Z,23.25
2022-08-31T18:58:02.289Z,23.42
2022-08-31T19:01:45.666Z,24.63
2022-08-31T19:09:13.258Z,24.50
2022-08-31T19:12:57.474Z,23.40
2022-08-31T19:16:39.921Z,27.73
2022-08-31T19:20:22.810Z,28.42
2022-08-31T19:24:10.049Z,35.28
2022-08-31T19:27:52.876Z,27.88
2022-08-31T19:31:39.249Z,32.33
2022-08-31T19:35:22.319Z,41.03
2022-08-31T19:39:05.550Z,42.70
2022-08-31T19:46:52.683Z,45.10
2022-08-31T19:50:41.484Z,45.08
2022-08-31T19:54:26.054Z,48.53
2022-08-31T19:58:08.785Z,47.47
2022-08-31T20:01:55.597Z,47.83
2022-08-31T20:05:43.374Z,45.55
2022-08-31T20:09:27.456Z,44.13
2022-08-31T20:13:15.000Z,42.42
2022-08-31T20:17:00.452Z,43.05
2022-08-31T20:20:46.065Z,43.97
2022-08-31T20:24:29.138Z,42.47
2022-08-31T20:28:12.370Z,43.92
2022-08-31T20:39:32.198Z,44.63
2022-08-31T20:43:15.999Z,49.20
2022-08-31T20:47:18.480Z,43.95
2022-08-31T20:51:16.104Z,43.45
2022-08-31T20:55:01.624Z,51.28
2022-08-31T20:58:45.090Z,49.15
2022-08-31T21:02:29.283Z,46.65
2022-08-31T21:06:13.340Z,45.33
2022-08-31T21:09:55.865Z,49.47
2022-08-31T21:13:38.412Z,50.50
2022-08-31T21:17:21.926Z,50.70
2022-08-31T21:21:08.226Z,50.58
2022-08-31T21:24:52.619Z,49.25
2022-08-31T21:28:38.457Z,48.13
2022-08-31T21:32:21.331Z,51.47
2022-08-31T21:36:06.917Z,40.33
2022-08-31T21:39:49.485Z,40.38
2022-08-31T21:43:33.559Z,35.70
2022-08-31T21:47:16.432Z,36.25
2022-08-31T21:50:59.553Z,32.63
2022-08-31T21:54:44.733Z,29.25
2022-08-31T21:58:27.202Z,27.80
2022-08-31T22:02:13.845Z,30.67
2022-08-31T22:05:56.742Z,28.73
2022-08-31T22:09:39.585Z,30.10
2022-08-31T22:13:22.346Z,21.15
2022-08-31T22:17:07.717Z,19.30
2022-08-31T22:20:52.237Z,20.58
2022-08-31T22:24:36.836Z,14.25
2022-08-31T22:28:21.870Z,16.80
2022-08-31T22:32:08.641Z,22.90
2022-08-31T22:53:00.076Z,12.90
2022-08-31T22:56:42.774Z,11.05
2022-08-31T23:00:26.052Z,15.25
2022-08-31T23:07:51.923Z,13.93
2022-08-31T23:11:36.513Z,10.35
2022-08-31T23:15:21.547Z,11.38
2022-08-31T23:19:12.023Z,14.90
2022-08-31T23:22:55.415Z,11.88
2022-08-31T23:26:40.542Z,19.27
2022-08-31T23:30:25.585Z,14.20
2022-08-31T23:34:13.235Z,11.77
2022-08-31T23:37:55.953Z,12.95
2022-08-31T23:41:40.141Z,13.43
2022-08-31T23:45:22.953Z,14.05
2022-08-31T23:49:09.113Z,13.45
2022-08-31T23:52:53.169Z,17.55
2022-08-31T23:56:38.750Z,12.50
